createdAt,value
2019-04-05T00:00:50.530Z,170.12
2019-04-05T00:03:21.852Z,162.40
2019-04-05T00:05:54.293Z,166.00
2019-04-05T00:08:25.640Z,159.03
2019-04-05T00:10:56.912Z,165.80
2019-04-05T00:13:28.251Z,152.57
2019-04-05T00:15:59.593Z,162.88
2019-04-05T00:18:30.953Z,150.55
2019-04-05T00:21:02.384Z,140.77
2019-04-05T00:23:33.717Z,148.82
2019-04-05T00:26:05.019Z,156.10
2019-04-05T00:28:36.414Z,159.78
2019-04-05T00:31:07.733Z,151.02
2019-04-05T00:33:39.105Z,141.53
2019-04-05T00:36:10.459Z,147.55
2019-04-05T00:38:41.817Z,116.57
2019-04-05T00:41:13.225Z,150.35
2019-04-05T00:43:44.696Z,149.27
2019-04-05T00:46:16.043Z,160.80
2019-04-05T00:48:47.383Z,156.97
2019-04-05T00:51:18.651Z,147.75
2019-04-05T00:53:50.004Z,203.55
2019-04-05T00:56:21.376Z,199.77
2019-04-05T00:58:52.655Z,202.72
2019-04-05T01:01:24.486Z,202.45
2019-04-05T01:03:55.834Z,189.03
2019-04-05T01:06:28.458Z,203.35
2019-04-05T01:09:00.817Z,189.55
2019-04-05T01:14:03.179Z,195.65
2019-04-05T01:16:34.531Z,206.40
2019-04-05T01:19:05.864Z,163.68
2019-04-05T01:21:39.941Z,174.65
2019-04-05T01:24:11.363Z,152.25
2019-04-05T01:26:43.227Z,149.72
2019-04-05T01:29:14.511Z,148.65
2019-04-05T01:31:45.868Z,145.53
2019-04-05T01:34:17.284Z,162.47
2019-04-05T01:36:48.567Z,160.43
2019-04-05T01:39:19.898Z,158.47
2019-04-05T01:41:51.289Z,156.02
2019-04-05T01:44:22.658Z,151.60
2019-04-05T01:46:54.011Z,145.87
2019-04-05T01:49:25.382Z,145.80
2019-04-05T01:51:56.746Z,158.47
2019-04-05T01:54:29.302Z,181.95
2019-04-05T01:57:00.806Z,226.37
2019-04-05T01:59:32.148Z,207.90
2019-04-05T02:02:03.535Z,190.60
2019-04-05T02:04:35.995Z,171.32
2019-04-05T02:07:07.391Z,175.12
2019-04-05T02:09:38.760Z,151.00
2019-04-05T02:12:10.074Z,167.15
2019-04-05T02:14:41.465Z,175.03
2019-04-05T02:17:12.829Z,158.70
2019-04-05T02:19:44.170Z,145.75
2019-04-05T02:22:15.635Z,145.75
2019-04-05T02:24:46.902Z,110.97
2019-04-05T02:27:18.296Z,131.32
2019-04-05T02:29:49.664Z,139.50
2019-04-05T02:32:21.141Z,129.50
2019-04-05T02:34:52.677Z,132.67
2019-04-05T02:37:23.956Z,143.62
2019-04-05T02:39:55.290Z,137.62
2019-04-05T02:42:26.595Z,96.82
2019-04-05T02:44:57.850Z,129.65
2019-04-05T02:47:29.194Z,114.72
2019-04-05T02:50:00.535Z,119.53
2019-04-05T02:52:31.854Z,118.93
2019-04-05T02:55:03.232Z,139.52
2019-04-05T02:57:34.531Z,169.05
2019-04-05T03:00:05.921Z,201.85
2019-04-05T03:02:37.394Z,132.07
2019-04-05T03:05:08.768Z,182.07
2019-04-05T03:07:40.089Z,176.57
2019-04-05T03:10:14.570Z,152.50
2019-04-05T03:12:45.970Z,172.90
2019-04-05T03:15:17.333Z,155.05
2019-04-05T03:17:48.641Z,146.00
2019-04-05T03:20:20.001Z,155.10
2019-04-05T03:22:51.341Z,112.80
2019-04-05T03:25:22.702Z,159.67
2019-04-05T03:27:54.062Z,155.72
2019-04-05T03:30:25.422Z,149.65
2019-04-05T03:32:56.804Z,146.77
2019-04-05T03:35:28.279Z,162.10
2019-04-05T03:37:59.601Z,151.68
2019-04-05T03:40:30.963Z,159.43
2019-04-05T03:43:02.366Z,161.03
2019-04-05T03:45:33.757Z,162.95
2019-04-05T03:48:05.152Z,144.25
2019-04-05T03:50:36.573Z,178.23
2019-04-05T03:53:07.920Z,162.00
2019-04-05T03:55:39.256Z,154.80
2019-04-05T03:58:10.603Z,160.25
2019-04-05T04:00:42.112Z,135.15
2019-04-05T04:03:13.538Z,160.00
2019-04-05T04:05:44.838Z,130.75
2019-04-05T04:08:16.231Z,182.32
2019-04-05T04:10:48.801Z,168.93
2019-04-05T04:13:20.151Z,184.52
2019-04-05T04:15:51.918Z,148.90
2019-04-05T04:18:23.311Z,146.02
2019-04-05T04:20:57.785Z,145.77
2019-04-05T04:23:30.037Z,147.30
2019-04-05T04:26:01.405Z,138.22
2019-04-05T04:28:32.800Z,148.20
2019-04-05T04:31:04.104Z,154.12
2019-04-05T04:33:36.463Z,136.25
2019-04-05T04:36:07.867Z,149.42
2019-04-05T04:38:39.556Z,144.07
2019-04-05T04:41:10.980Z,134.78
2019-04-05T04:43:42.359Z,152.30
2019-04-05T04:46:13.874Z,141.65
2019-04-05T04:48:45.269Z,137.55
2019-04-05T04:51:16.826Z,96.80
2019-04-05T04:53:48.175Z,179.57
2019-04-05T04:56:19.518Z,156.43
2019-04-05T04:58:50.871Z,152.85
2019-04-05T05:01:22.115Z,149.40
2019-04-05T05:03:53.603Z,163.80
2019-04-05T05:06:24.961Z,154.47
2019-04-05T05:08:57.309Z,173.60
2019-04-05T05:11:28.755Z,156.65
2019-04-05T05:14:00.100Z,164.65
2019-04-05T05:16:31.365Z,142.53
2019-04-05T05:19:02.696Z,164.50
2019-04-05T05:21:34.064Z,181.20
2019-04-05T05:24:05.434Z,172.90
2019-04-05T05:26:36.757Z,202.20
2019-04-05T05:29:08.178Z,160.37
2019-04-05T05:31:39.551Z,190.95
2019-04-05T05:34:10.978Z,215.35
2019-04-05T05:36:42.729Z,191.12
2019-04-05T05:39:14.541Z,196.37
2019-04-05T05:41:45.920Z,195.15
2019-04-05T05:44:17.411Z,184.32
2019-04-05T05:46:48.884Z,156.80
2019-04-05T05:49:20.372Z,162.43
2019-04-05T05:51:51.853Z,176.47
2019-04-05T05:54:23.169Z,139.03
2019-04-05T05:56:54.582Z,154.18
2019-04-05T05:59:29.663Z,140.60
2019-04-05T06:01:59.021Z,129.72
2019-04-05T06:04:31.488Z,128.55
2019-04-05T06:07:02.830Z,116.75
2019-04-05T06:09:34.234Z,105.25
2019-04-05T06:12:05.617Z,121.50
2019-04-05T06:14:37.005Z,112.52
2019-04-05T06:17:08.376Z,108.67
2019-04-05T06:19:39.739Z,93.42
2019-04-05T06:22:11.092Z,87.00
2019-04-05T06:24:42.491Z,90.80
2019-04-05T06:27:13.908Z,89.90
2019-04-05T06:29:45.291Z,89.07
2019-04-05T06:32:16.650Z,94.65
2019-04-05T06:34:47.945Z,78.07
2019-04-05T06:37:19.351Z,94.32
2019-04-05T06:39:50.768Z,82.20
2019-04-05T06:42:22.117Z,54.23
2019-04-05T06:44:53.453Z,71.95
2019-04-05T06:47:24.774Z,74.80
2019-04-05T06:49:56.033Z,102.75
2019-04-05T06:52:27.576Z,92.45
2019-04-05T06:54:58.950Z,103.02
2019-04-05T06:57:30.224Z,83.17
2019-04-05T07:00:01.417Z,69.53
2019-04-05T07:02:32.923Z,53.63
2019-04-05T07:05:05.470Z,53.13
2019-04-05T07:07:36.748Z,68.52
2019-04-05T07:10:08.100Z,81.55
2019-04-05T07:12:41.052Z,64.80
2019-04-05T07:15:12.403Z,67.90
2019-04-05T07:17:43.773Z,67.60
2019-04-05T07:20:15.123Z,71.62
2019-04-05T07:22:46.426Z,78.70
2019-04-05T07:25:17.772Z,58.33
2019-04-05T07:27:49.137Z,63.98
2019-04-05T07:30:21.574Z,62.75
2019-04-05T07:32:52.997Z,58.73
2019-04-05T07:35:33.404Z,50.12
2019-04-05T07:37:57.429Z,48.95
2019-04-05T07:40:28.790Z,53.45
2019-04-05T07:43:00.176Z,54.53
2019-04-05T07:45:31.537Z,50.90
2019-04-05T07:48:02.898Z,47.35
2019-04-05T07:50:34.328Z,39.55
2019-04-05T07:53:05.695Z,42.43
2019-04-05T07:55:36.944Z,43.75
2019-04-05T07:58:08.281Z,39.60
2019-04-05T08:00:48.615Z,37.23
2019-04-05T08:03:20.555Z,37.13
2019-04-05T08:05:51.992Z,30.52
2019-04-05T08:08:44.370Z,24.15
2019-04-05T08:11:17.481Z,21.60
2019-04-05T08:16:19.629Z,31.00
2019-04-05T08:18:57.677Z,18.27
2019-04-05T08:21:24.209Z,22.50
2019-04-05T08:23:55.538Z,18.15
2019-04-05T08:26:28.006Z,15.05
2019-04-05T08:28:59.389Z,21.68
2019-04-05T08:31:30.738Z,23.90
2019-04-05T08:34:02.180Z,19.40
2019-04-05T08:36:33.439Z,18.27
2019-04-05T08:39:07.532Z,24.85
2019-04-05T08:41:38.867Z,22.82
2019-04-05T08:44:10.060Z,26.30
2019-04-05T08:46:41.394Z,30.88
2019-04-05T08:49:12.790Z,26.07
2019-04-05T08:51:44.135Z,30.48
2019-04-05T08:54:15.493Z,25.68
2019-04-05T08:56:46.860Z,36.75
2019-04-05T08:59:18.285Z,31.30
2019-04-05T09:01:49.605Z,35.40
2019-04-05T09:04:21.015Z,29.55
2019-04-05T09:06:52.296Z,48.08
2019-04-05T09:09:23.646Z,34.65
2019-04-05T09:11:55.045Z,32.80
2019-04-05T09:14:26.415Z,31.73
2019-04-05T09:16:57.796Z,38.90
2019-04-05T09:19:29.144Z,36.88
2019-04-05T09:22:00.666Z,35.55
2019-04-05T09:24:32.051Z,34.95
2019-04-05T09:27:03.395Z,35.70
2019-04-05T09:29:34.776Z,37.58
2019-04-05T09:32:06.154Z,48.50
2019-04-05T09:34:37.527Z,25.08
2019-04-05T09:37:09.902Z,22.37
2019-04-05T09:39:41.297Z,34.78
2019-04-05T09:42:12.658Z,25.68
2019-04-05T09:44:44.013Z,30.55
2019-04-05T09:47:15.361Z,29.92
2019-04-05T09:49:46.776Z,22.05
2019-04-05T09:52:18.155Z,25.08
2019-04-05T09:54:49.519Z,30.32
2019-04-05T09:57:20.882Z,21.62
2019-04-05T09:59:52.239Z,24.18
2019-04-05T10:02:23.591Z,24.43
2019-04-05T10:04:54.959Z,24.07
2019-04-05T10:07:26.327Z,27.93
2019-04-05T10:09:57.698Z,29.35
2019-04-05T10:12:29.058Z,25.08
2019-04-05T10:15:00.381Z,32.50
2019-04-05T10:17:33.023Z,25.88
2019-04-05T10:20:06.772Z,21.48
2019-04-05T10:22:38.085Z,28.85
2019-04-05T10:25:09.445Z,21.55
2019-04-05T10:27:40.737Z,26.37
2019-04-05T10:30:12.282Z,27.65
2019-04-05T10:32:46.077Z,28.73
2019-04-05T10:35:16.724Z,23.52
2019-04-05T10:37:48.020Z,24.70
2019-04-05T10:40:19.977Z,27.30
2019-04-05T10:42:51.363Z,26.20
2019-04-05T10:45:22.641Z,34.92
2019-04-05T10:47:53.955Z,27.60
2019-04-05T10:50:25.309Z,29.12
2019-04-05T10:52:56.621Z,26.40
2019-04-05T10:55:28.001Z,27.82
2019-04-05T10:57:59.399Z,24.85
2019-04-05T11:00:30.694Z,25.37
2019-04-05T11:03:02.041Z,22.22
2019-04-05T11:05:33.423Z,23.90
2019-04-05T11:08:04.933Z,22.22
2019-04-05T11:10:36.313Z,22.82
2019-04-05T11:13:07.676Z,27.93
2019-04-05T11:15:39.028Z,20.50
2019-04-05T11:18:10.436Z,20.43
2019-04-05T11:20:41.802Z,24.10
2019-04-05T11:23:13.200Z,16.70
2019-04-05T11:25:44.558Z,22.73
2019-04-05T11:28:15.914Z,20.90
2019-04-05T11:30:47.302Z,20.72
2019-04-05T11:33:19.878Z,22.60
2019-04-05T11:35:52.668Z,20.75
2019-04-05T11:38:24.528Z,22.15
2019-04-05T11:40:56.162Z,23.42
2019-04-05T11:43:31.137Z,28.40
2019-04-05T11:46:01.008Z,25.70
2019-04-05T11:48:32.364Z,25.00
2019-04-05T11:51:03.732Z,23.60
2019-04-05T11:53:35.144Z,22.37
2019-04-05T11:56:14.626Z,24.63
2019-04-05T11:58:41.133Z,27.20
2019-04-05T12:01:14.061Z,22.50
2019-04-05T12:03:45.414Z,22.58
2019-04-05T12:06:18.094Z,20.08
2019-04-05T12:08:50.708Z,23.85
2019-04-05T12:11:22.114Z,29.92
2019-04-05T12:13:53.544Z,26.35
2019-04-05T12:16:24.863Z,19.37
2019-04-05T12:18:58.756Z,18.45
2019-04-05T12:21:29.269Z,19.32
2019-04-05T12:24:02.562Z,21.55
2019-04-05T12:26:34.488Z,29.15
2019-04-05T12:29:06.386Z,26.48
2019-04-05T12:31:37.767Z,28.60
2019-04-05T12:34:09.172Z,25.60
2019-04-05T12:36:40.517Z,23.52
2019-04-05T12:39:11.863Z,24.50
2019-04-05T12:41:44.875Z,27.27
2019-04-05T12:44:16.272Z,26.15
2019-04-05T12:46:47.646Z,26.90
2019-04-05T12:49:18.995Z,27.67
2019-04-05T12:51:50.276Z,26.30
2019-04-05T12:54:22.637Z,27.60
2019-04-05T12:56:54.341Z,26.23
2019-04-05T12:59:26.775Z,31.37
2019-04-05T13:01:59.653Z,24.05
2019-04-05T13:04:31.193Z,49.93
2019-04-05T13:07:02.549Z,31.40
2019-04-05T13:09:33.917Z,28.57
2019-04-05T13:12:05.326Z,25.30
2019-04-05T13:14:36.680Z,34.15
2019-04-05T13:17:09.076Z,27.87
2019-04-05T13:19:40.420Z,29.40
2019-04-05T13:22:11.771Z,34.05
2019-04-05T13:24:43.064Z,31.60
2019-04-05T13:27:14.406Z,31.75
2019-04-05T13:29:47.332Z,33.02
2019-04-05T13:32:21.557Z,31.82
2019-04-05T13:34:55.374Z,36.05
2019-04-05T13:37:24.868Z,28.47
2019-04-05T13:39:57.674Z,40.43
2019-04-05T13:42:31.221Z,36.08
2019-04-05T13:45:02.512Z,33.58
2019-04-05T13:47:37.958Z,29.65
2019-04-05T13:50:10.922Z,31.27
2019-04-05T13:52:42.158Z,28.83
2019-04-05T13:55:13.621Z,36.13
2019-04-05T13:57:44.991Z,31.68
2019-04-05T14:00:18.326Z,35.03
2019-04-05T14:02:50.771Z,32.17
2019-04-05T14:05:22.899Z,39.20
2019-04-05T14:08:09.154Z,33.55
2019-04-05T14:10:27.262Z,40.30
2019-04-05T14:12:59.716Z,41.55
2019-04-05T14:15:31.524Z,39.95
2019-04-05T14:18:03.261Z,37.88
2019-04-05T14:20:34.619Z,41.13
2019-04-05T14:23:05.949Z,49.48
2019-04-05T14:25:37.296Z,45.58
2019-04-05T14:28:08.664Z,42.45
2019-04-05T14:30:39.962Z,43.78
2019-04-05T14:33:11.389Z,45.20
2019-04-05T14:35:42.712Z,41.75
2019-04-05T14:38:14.090Z,58.05
2019-04-05T14:40:45.460Z,51.80
2019-04-05T14:43:16.825Z,45.15
2019-04-05T14:45:48.194Z,47.60
2019-04-05T14:48:19.549Z,40.73
2019-04-05T14:50:50.864Z,41.70
2019-04-05T14:53:23.203Z,38.17
2019-04-05T14:55:54.584Z,43.20
2019-04-05T14:58:25.966Z,43.85
2019-04-05T15:00:57.329Z,41.25
2019-04-05T15:03:28.715Z,57.05
2019-04-05T15:06:01.048Z,40.28
2019-04-05T15:08:32.404Z,43.60
2019-04-05T15:11:03.750Z,55.30
2019-04-05T15:13:35.135Z,56.13
2019-04-05T15:16:06.540Z,55.63
2019-04-05T15:18:37.901Z,41.20
2019-04-05T15:21:09.290Z,45.23
2019-04-05T15:23:41.375Z,44.38
2019-04-05T15:26:12.977Z,46.00
2019-04-05T15:28:44.324Z,39.05
2019-04-05T15:31:15.738Z,34.13
2019-04-05T15:33:47.065Z,39.65
2019-04-05T15:36:18.453Z,38.17
2019-04-05T15:38:49.737Z,36.80
2019-04-05T15:41:21.193Z,41.40
2019-04-05T15:43:52.461Z,38.15
2019-04-05T15:46:23.807Z,47.48
2019-04-05T15:48:55.178Z,55.28
2019-04-05T15:51:26.575Z,48.95
2019-04-05T15:54:01.132Z,38.63
2019-04-05T15:56:33.262Z,33.53
2019-04-05T15:59:04.843Z,40.03
2019-04-05T16:01:36.369Z,43.00
2019-04-05T16:04:07.688Z,44.27
2019-04-05T16:06:39.296Z,54.45
2019-04-05T16:09:13.211Z,54.73
2019-04-05T16:11:44.690Z,49.63
2019-04-05T16:14:16.035Z,39.60
2019-04-05T16:16:47.539Z,39.92
2019-04-05T16:19:18.905Z,40.28
2019-04-05T16:21:50.272Z,42.17
2019-04-05T16:24:21.625Z,38.90
2019-04-05T16:26:53.023Z,41.48
2019-04-05T16:29:24.351Z,45.08
2019-04-05T16:31:55.678Z,46.83
2019-04-05T16:34:27.034Z,46.65
2019-04-05T16:36:58.302Z,45.33
2019-04-05T16:39:29.628Z,42.43
2019-04-05T16:42:01.008Z,40.00
2019-04-05T16:44:32.372Z,30.80
2019-04-05T16:47:03.770Z,35.45
2019-04-05T16:49:35.190Z,35.75
2019-04-05T16:52:06.725Z,40.03
2019-04-05T16:54:38.085Z,51.60
2019-04-05T16:57:10.429Z,47.62
2019-04-05T16:59:41.778Z,69.40
2019-04-05T17:02:13.079Z,68.22
2019-04-05T17:04:46.013Z,82.17
2019-04-05T17:07:17.396Z,100.82
2019-04-05T17:09:48.757Z,111.60
2019-04-05T17:12:21.670Z,143.30
2019-04-05T17:14:54.262Z,150.93
2019-04-05T17:17:25.559Z,133.87
2019-04-05T17:19:56.950Z,94.17
2019-04-05T17:22:28.337Z,111.57
2019-04-05T17:24:59.705Z,95.95
2019-04-05T17:27:31.025Z,92.60
2019-04-05T17:30:03.959Z,101.38
2019-04-05T17:32:35.572Z,87.72
2019-04-05T17:35:07.684Z,82.40
2019-04-05T17:37:39.039Z,87.17
2019-04-05T17:40:11.409Z,74.90
2019-04-05T17:42:42.758Z,86.02
2019-04-05T17:45:14.099Z,85.50
2019-04-05T17:47:45.454Z,90.87
2019-04-05T17:50:19.969Z,99.40
2019-04-05T17:52:51.314Z,98.30
2019-04-05T17:55:22.691Z,116.05
2019-04-05T17:57:54.041Z,114.67
2019-04-05T18:00:26.316Z,108.83
2019-04-05T18:02:57.701Z,86.92
2019-04-05T18:05:29.085Z,84.00
2019-04-05T18:08:00.344Z,85.07
2019-04-05T18:10:31.704Z,67.40
2019-04-05T18:13:03.216Z,74.90
2019-04-05T18:15:34.477Z,81.08
2019-04-05T18:18:05.906Z,96.08
2019-04-05T18:20:37.282Z,61.77
2019-04-05T18:23:08.647Z,108.17
2019-04-05T18:25:39.995Z,109.65
2019-04-05T18:28:11.348Z,106.32
2019-04-05T18:30:42.719Z,96.65
2019-04-05T18:33:14.058Z,91.85
2019-04-05T18:35:45.442Z,106.83
2019-04-05T18:38:18.007Z,88.50
2019-04-05T18:40:49.771Z,100.58
2019-04-05T18:43:21.170Z,83.70
2019-04-05T18:45:52.575Z,86.80
2019-04-05T18:48:23.945Z,79.25
2019-04-05T18:50:55.749Z,106.07
2019-04-05T18:53:37.167Z,107.27
2019-04-05T18:56:00.174Z,113.90
2019-04-05T18:58:31.534Z,127.67
2019-04-05T19:01:02.819Z,164.22
2019-04-05T19:03:35.281Z,115.62
2019-04-05T19:06:06.654Z,149.38
2019-04-05T19:08:39.890Z,109.75
2019-04-05T19:11:11.187Z,135.43
2019-04-05T19:13:42.601Z,129.18
2019-04-05T19:16:13.999Z,128.05
2019-04-05T19:18:45.320Z,120.53
2019-04-05T19:21:16.678Z,130.03
2019-04-05T19:23:51.128Z,150.53
2019-04-05T19:26:21.091Z,123.38
2019-04-05T19:28:52.404Z,125.50
2019-04-05T19:49:18.679Z,122.58
2019-04-05T19:51:50.035Z,117.28
2019-04-05T19:54:21.457Z,114.45
2019-04-05T19:56:52.817Z,112.22
2019-04-05T19:59:24.169Z,125.02
2019-04-05T20:01:55.529Z,128.62
2019-04-05T20:04:26.915Z,104.12
2019-04-05T20:06:59.368Z,117.50
2019-04-05T20:09:30.749Z,127.50
2019-04-05T20:12:02.099Z,129.12
2019-04-05T20:14:33.472Z,126.22
2019-04-05T20:17:04.802Z,132.95
2019-04-05T20:19:36.174Z,125.58
2019-04-05T20:22:07.499Z,149.65
2019-04-05T20:24:38.838Z,301.40
2019-04-05T20:27:10.252Z,331.25
2019-04-05T20:29:41.880Z,376.50
2019-04-05T20:32:13.225Z,379.45
2019-04-05T20:34:44.574Z,396.02
2019-04-05T20:37:15.889Z,373.00
2019-04-05T20:39:47.272Z,292.37
2019-04-05T20:42:18.621Z,362.23
2019-04-05T20:44:50.042Z,341.15
2019-04-05T20:47:21.425Z,332.60
2019-04-05T20:49:52.794Z,311.05
2019-04-05T20:52:24.153Z,310.20
2019-04-05T20:54:55.534Z,271.85
2019-04-05T20:57:26.892Z,245.73
2019-04-05T20:59:58.217Z,231.57
2019-04-05T21:02:29.570Z,223.97
2019-04-05T21:05:00.873Z,192.07
2019-04-05T21:07:33.532Z,189.45
2019-04-05T21:10:06.899Z,172.28
2019-04-05T21:12:38.179Z,154.32
2019-04-05T21:15:09.596Z,161.47
2019-04-05T21:17:40.924Z,154.63
2019-04-05T21:20:12.250Z,161.85
2019-04-05T21:22:43.581Z,140.03
2019-04-05T21:25:14.935Z,123.87
2019-04-05T21:27:46.337Z,145.28
2019-04-05T21:30:17.754Z,123.65
2019-04-05T21:32:49.031Z,130.03
2019-04-05T21:35:20.523Z,146.00
2019-04-05T21:37:52.130Z,102.22
2019-04-05T21:40:23.704Z,128.10
2019-04-05T21:42:55.268Z,105.07
2019-04-05T21:45:26.822Z,110.85
2019-04-05T21:47:58.430Z,90.40
2019-04-05T21:50:30.042Z,82.97
2019-04-05T21:53:01.609Z,85.38
2019-04-05T21:55:35.466Z,93.22
2019-04-05T21:58:07.014Z,86.10
2019-04-05T22:00:42.907Z,87.40
2019-04-05T22:03:15.980Z,89.62
2019-04-05T22:05:47.648Z,85.25
2019-04-05T22:08:20.574Z,90.32
2019-04-05T22:10:52.127Z,73.47
2019-04-05T22:13:23.821Z,76.60
2019-04-05T22:15:55.387Z,72.42
2019-04-05T22:18:26.937Z,77.97
2019-04-05T22:20:58.491Z,76.72
2019-04-05T22:23:30.064Z,78.75
2019-04-05T22:26:01.714Z,68.07
2019-04-05T22:28:33.266Z,67.10
2019-04-05T22:31:04.816Z,58.58
2019-04-05T22:33:36.336Z,62.98
2019-04-05T22:36:07.914Z,64.30
2019-04-05T22:38:39.500Z,71.87
2019-04-05T22:41:11.046Z,60.52
2019-04-05T22:43:42.593Z,58.92
2019-04-05T22:46:14.185Z,69.00
2019-04-05T22:48:45.749Z,61.55
2019-04-05T22:51:17.323Z,60.25
2019-04-05T22:53:48.938Z,62.53
2019-04-05T22:56:20.497Z,68.40
2019-04-05T22:58:52.063Z,64.22
2019-04-05T23:01:23.606Z,57.58
2019-04-05T23:03:55.212Z,59.35
2019-04-05T23:06:27.987Z,53.68
2019-04-05T23:08:59.528Z,57.93
2019-04-05T23:11:31.087Z,59.75
2019-04-05T23:14:02.619Z,74.15
2019-04-05T23:16:34.255Z,79.40
2019-04-05T23:19:05.826Z,63.30
2019-04-05T23:21:37.404Z,60.35
2019-04-05T23:24:08.950Z,67.03
2019-04-05T23:26:40.525Z,55.70
2019-04-05T23:29:12.089Z,61.33
2019-04-05T23:31:43.640Z,62.83
2019-04-05T23:34:15.387Z,57.03
2019-04-05T23:36:46.952Z,74.32
2019-04-05T23:39:18.496Z,68.37
2019-04-05T23:41:50.038Z,70.57
2019-04-05T23:44:21.624Z,67.62
2019-04-05T23:46:53.209Z,70.97
2019-04-05T23:49:24.701Z,70.60
2019-04-05T23:51:57.285Z,54.30
2019-04-05T23:54:28.842Z,60.08
2019-04-05T23:57:00.385Z,51.83
2019-04-05T23:59:31.929Z,49.33
